Time;durP1;ratioP1;P1;durP2;ratioP2;P2;SDS_P1;SDS_P2;PMS_P1;PMS_P2;Temp;Humidity;BMP_temperature;BMP_pressure;BME280_temperature;BME280_humidity;BME280_pressure;Samples;Min_cycle;Max_cycle;Signal;HPM_P1;HPM_P2
2023/06/05 00:03:55;;;;;;;3.7;1.9;;;;;;;8.4;68;99250;;;;
2023/06/05 00:14:54;;;;;;;3.7;1.6;;;;;;;8.2;68.9;99250;;;;
2023/06/05 00:24:54;;;;;;;3.7;1.6;;;;;;;8;69.7;99240;;;;
2023/06/05 00:34:54;;;;;;;3.7;1.6;;;;;;;7.9;74.1;99240;;;;
2023/06/05 00:45:54;;;;;;;3.7;1.6;;;;;;;7.9;74.5;99240;;;;
2023/06/05 00:55:55;;;;;;;3.7;1.6;;;;;;;7.8;72.7;99240;;;;
2023/06/05 01:06:57;;;;;;;3.7;1.6;;;;;;;7.6;72.6;99240;;;;
2023/06/05 01:17:55;;;;;;;3.6;2;;;;;;;7.4;73.6;99240;;;;
2023/06/05 01:28:54;;;;;;;3.6;2;;;;;;;7.3;75.8;99240;;;;
2023/06/05 01:38:54;;;;;;;3.6;2;;;;;;;7.3;75.2;99230;;;;
2023/06/05 01:49:55;;;;;;;4.5;2.1;;;;;;;7.3;77;99230;;;;
2023/06/05 01:59:55;;;;;;;4.5;2.1;;;;;;;7.1;76;99240;;;;
2023/06/05 02:10:54;;;;;;;4.5;2.1;;;;;;;7.2;76.8;99230;;;;
2023/06/05 02:20:56;;;;;;;3.7;1.8;;;;;;;7.1;76.8;99240;;;;
2023/06/05 02:31:54;;;;;;;3.7;1.8;;;;;;;7;76.6;99240;;;;
2023/06/05 02:42:55;;;;;;;4.1;1.5;;;;;;;6.9;76.5;99240;;;;
2023/06/05 02:52:54;;;;;;;4.1;1.5;;;;;;;6.9;77.2;99240;;;;
2023/06/05 03:03:56;;;;;;;4.1;1.5;;;;;;;6.9;78.5;99240;;;;
2023/06/05 03:13:55;;;;;;;3.7;1.6;;;;;;;7;78.5;99240;;;;
2023/06/05 03:24:55;;;;;;;4.1;1.5;;;;;;;7.1;80.1;99250;;;;
2023/06/05 03:34:55;;;;;;;4.1;1.5;;;;;;;7.3;79.4;99250;;;;
2023/06/05 03:45:55;;;;;;;4.1;1.5;;;;;;;7.6;78.8;99250;;;;
2023/06/05 03:55:55;;;;;;;6.1;2.1;;;;;;;7.9;78.1;99240;;;;
2023/06/05 04:06:55;;;;;;;6.1;2.1;;;;;;;8.4;77.6;99240;;;;
2023/06/05 04:16:55;;;;;;;6.1;2.1;;;;;;;8.8;77.6;99240;;;;
2023/06/05 04:27:56;;;;;;;4.4;2.1;;;;;;;9.5;76.8;99250;;;;
2023/06/05 04:37:56;;;;;;;4.4;2.1;;;;;;;10.1;74.6;99230;;;;
2023/06/05 04:47:55;;;;;;;4.4;2.1;;;;;;;10.9;72.2;99230;;;;
2023/06/05 04:58:55;;;;;;;8.3;3.3;;;;;;;11.4;70.7;99230;;;;
2023/06/05 05:08:55;;;;;;;8.3;3.3;;;;;;;12;68.3;99240;;;;
2023/06/05 05:18:55;;;;;;;8.3;3.3;;;;;;;12.5;67.7;99240;;;;
2023/06/05 05:29:55;;;;;;;6.3;3.7;;;;;;;13;65.6;99240;;;;
2023/06/05 05:39:55;;;;;;;6.3;3.7;;;;;;;13.4;65.8;99240;;;;
2023/06/05 05:49:55;;;;;;;6.3;3.7;;;;;;;13.8;63.8;99240;;;;
2023/06/05 05:59:55;;;;;;;9.6;5.4;;;;;;;14.3;63.6;99250;;;;
2023/06/05 06:10:55;;;;;;;9.6;5.4;;;;;;;14.7;61.9;99240;;;;
2023/06/05 06:21:55;;;;;;;9.6;5.4;;;;;;;15.1;60.7;99240;;;;
2023/06/05 06:31:54;;;;;;;8.8;4.9;;;;;;;15.6;60.2;99240;;;;
2023/06/05 06:41:55;;;;;;;8.8;4.9;;;;;;;16;59.6;99240;;;;
2023/06/05 06:52:55;;;;;;;8.8;4.6;;;;;;;16.5;58.6;99230;;;;
2023/06/05 07:03:55;;;;;;;8.8;4.6;;;;;;;16.9;57;99220;;;;
2023/06/05 07:13:55;;;;;;;8.8;4.6;;;;;;;17.2;57.2;99220;;;;
2023/06/05 07:23:55;;;;;;;10.2;4.9;;;;;;;17.5;56.4;99230;;;;
2023/06/05 07:33:55;;;;;;;10.2;4.9;;;;;;;18.3;55;99230;;;;
2023/06/05 07:44:55;;;;;;;10.2;4.9;;;;;;;18.8;52.5;99230;;;;
2023/06/05 07:54:55;;;;;;;8.9;4.3;;;;;;;19.2;52.1;99210;;;;
2023/06/05 08:05:55;;;;;;;8.9;4.3;;;;;;;19.7;47.4;99210;;;;
2023/06/05 08:16:55;;;;;;;8.9;4.3;;;;;;;19.9;47.4;99200;;;;
2023/06/05 08:26:55;;;;;;;8.3;3.4;;;;;;;20;44.8;99190;;;;
2023/06/05 08:36:58;;;;;;;8.3;3.4;;;;;;;20.1;43.8;99190;;;;
2023/06/05 08:47:55;;;;;;;8.3;3.4;;;;;;;20.6;41.7;99190;;;;
2023/06/05 08:57:55;;;;;;;8.2;3.1;;;;;;;20.4;40.8;99200;;;;
2023/06/05 09:08:55;;;;;;;8.2;3.1;;;;;;;20.8;41.7;99190;;;;
2023/06/05 09:19:55;;;;;;;8.2;3.1;;;;;;;21.3;41.5;99190;;;;
2023/06/05 09:30:56;;;;;;;10.6;3.2;;;;;;;21.6;41.2;99200;;;;
2023/06/05 09:40:55;;;;;;;10.6;3.2;;;;;;;21.6;40;99180;;;;
2023/06/05 09:50:55;;;;;;;10.6;3.2;;;;;;;21.8;40.7;99180;;;;
2023/06/05 10:00:59;;;;;;;6;3.1;;;;;;;22.3;39.1;99160;;;;
2023/06/05 10:11:55;;;;;;;6;3.1;;;;;;;22.1;41.8;99150;;;;
2023/06/05 10:22:55;;;;;;;6.9;2.9;;;;;;;22.5;40.3;99140;;;;
2023/06/05 10:32:57;;;;;;;6.9;2.9;;;;;;;22.5;40.7;99130;;;;
2023/06/05 10:43:55;;;;;;;6.9;2.9;;;;;;;23;41.5;99130;;;;
2023/06/05 10:53:55;;;;;;;5.7;2.9;;;;;;;23.2;39.8;99120;;;;
2023/06/05 11:04:56;;;;;;;5.7;2.9;;;;;;;23.4;39.9;99120;;;;
2023/06/05 11:15:56;;;;;;;5.7;2.9;;;;;;;23.5;39.4;99120;;;;
2023/06/05 11:25:57;;;;;;;10;3.8;;;;;;;23.4;40.1;99110;;;;
2023/06/05 11:35:55;;;;;;;10;3.8;;;;;;;23.8;38.4;99100;;;;
2023/06/05 11:45:55;;;;;;;10;3.8;;;;;;;23.3;39.7;99100;;;;
2023/06/05 11:56:55;;;;;;;6.1;3;;;;;;;23.4;38.6;99090;;;;
2023/06/05 12:06:55;;;;;;;6.1;3;;;;;;;24;38.2;99090;;;;
2023/06/05 12:16:55;;;;;;;6.1;3;;;;;;;24.5;37.4;99080;;;;
2023/06/05 12:27:55;;;;;;;7.5;3.5;;;;;;;24.3;38.2;99070;;;;
2023/06/05 12:38:55;;;;;;;7.5;3.5;;;;;;;24.4;37.8;99070;;;;
2023/06/05 12:49:56;;;;;;;7.5;3.5;;;;;;;25.1;38.3;99050;;;;
2023/06/05 12:59:55;;;;;;;7.4;3.4;;;;;;;25.3;39.1;99040;;;;
2023/06/05 13:09:55;;;;;;;7.4;3.4;;;;;;;24.9;37.1;99040;;;;
2023/06/05 13:19:55;;;;;;;7.4;3.4;;;;;;;24.6;37.8;99020;;;;
2023/06/05 13:29:55;;;;;;;7.6;3.4;;;;;;;25.5;36.8;99020;;;;
2023/06/05 13:39:55;;;;;;;7.6;3.4;;;;;;;24.9;38.7;99000;;;;
2023/06/05 13:49:55;;;;;;;7.6;3.4;;;;;;;25.3;37.6;99000;;;;
2023/06/05 14:00:55;;;;;;;;;;;;;;;24.6;38.1;99000;;;;
2023/06/05 14:10:55;;;;;;;14.3;3.8;;;;;;;24.8;38.2;98990;;;;
2023/06/05 14:21:55;;;;;;;6.2;2.9;;;;;;;23.6;40.4;98990;;;;
2023/06/05 14:31:55;;;;;;;;;;;;;;;23.2;41;98990;;;;
2023/06/05 14:41:55;;;;;;;13.3;7.4;;;;;;;23.6;40.7;98970;;;;
2023/06/05 14:51:55;;;;;;;13.3;7.4;;;;;;;23.5;41;98970;;;;
2023/06/05 15:01:55;;;;;;;13.3;7.4;;;;;;;23.7;42.1;98970;;;;
2023/06/05 15:12:57;;;;;;;12.3;5.5;;;;;;;23.5;40.9;98970;;;;
2023/06/05 15:22:55;;;;;;;12.3;5.5;;;;;;;23.4;41.8;98970;;;;
2023/06/05 15:32:55;;;;;;;8.3;3.6;;;;;;;23.2;42.2;98960;;;;
2023/06/05 15:42:55;;;;;;;8.3;3.6;;;;;;;23.1;42.1;98960;;;;
2023/06/05 15:52:55;;;;;;;8.3;3.6;;;;;;;22.9;42.7;98960;;;;
2023/06/05 16:02:55;;;;;;;6.4;3.5;;;;;;;22.6;43.1;98960;;;;
2023/06/05 16:12:55;;;;;;;6.4;3.5;;;;;;;22.3;43.5;98960;;;;
2023/06/05 16:22:55;;;;;;;6.4;3.5;;;;;;;22.1;44.3;98960;;;;
2023/06/05 16:33:55;;;;;;;9.2;3.8;;;;;;;21.8;44.4;98960;;;;
2023/06/05 16:44:57;;;;;;;9.2;3.8;;;;;;;21.6;44.7;98960;;;;
2023/06/05 16:55:55;;;;;;;9.2;3.8;;;;;;;21.4;45.7;98950;;;;
2023/06/05 17:05:55;;;;;;;9.6;4.4;;;;;;;21.3;47.1;98950;;;;
2023/06/05 17:15:55;;;;;;;9.6;4.4;;;;;;;21.1;46.8;98950;;;;
2023/06/05 17:25:55;;;;;;;9.6;4.4;;;;;;;20.9;46.8;98940;;;;
2023/06/05 17:35:55;;;;;;;10.1;4.5;;;;;;;20.7;47.2;98950;;;;
2023/06/05 17:45:55;;;;;;;10.1;4.5;;;;;;;20.6;47.3;98950;;;;
2023/06/05 17:56:55;;;;;;;10.1;4.5;;;;;;;20.4;47.9;98940;;;;
2023/06/05 18:06:55;;;;;;;9.8;3.8;;;;;;;20.2;47.9;98940;;;;
2023/06/05 18:16:55;;;;;;;9.8;3.8;;;;;;;20;48.1;98940;;;;
2023/06/05 18:27:56;;;;;;;9.8;3.8;;;;;;;19.8;48.8;98950;;;;
2023/06/05 18:37:55;;;;;;;10;4.4;;;;;;;19.7;48.9;98960;;;;
2023/06/05 18:48:55;;;;;;;;;;;;;;;19.6;49.7;98970;;;;
2023/06/05 18:58:55;;;;;;;8.7;4.8;;;;;;;19.4;50.8;98980;;;;
2023/06/05 19:08:55;;;;;;;8.7;4.8;;;;;;;19.3;50.4;98990;;;;
2023/06/05 19:19:55;;;;;;;8.7;4.8;;;;;;;19.1;51.1;98990;;;;
2023/06/05 19:29:55;;;;;;;9.5;4.6;;;;;;;19.1;51.1;99000;;;;
2023/06/05 19:39:55;;;;;;;9.5;4.6;;;;;;;19;51.3;98990;;;;
2023/06/05 19:49:55;;;;;;;9.5;4.6;;;;;;;18.8;51.7;98990;;;;
2023/06/05 19:59:55;;;;;;;8.2;4.6;;;;;;;18.7;52.4;98990;;;;
2023/06/05 20:10:55;;;;;;;8.2;4.6;;;;;;;18.5;53;98990;;;;
2023/06/05 20:21:55;;;;;;;8.2;4.6;;;;;;;18.3;53.9;98990;;;;
2023/06/05 20:32:57;;;;;;;14.2;7.6;;;;;;;18.2;53.5;98980;;;;
2023/06/05 20:42:56;;;;;;;14.2;7.6;;;;;;;18;53.4;98980;;;;
2023/06/05 20:53:55;;;;;;;10.9;6.1;;;;;;;17.9;53;99000;;;;
2023/06/05 21:03:55;;;;;;;10.9;6.1;;;;;;;17.7;53.3;99000;;;;
2023/06/05 21:13:55;;;;;;;10.9;6.1;;;;;;;17.6;53.3;99000;;;;
2023/06/05 21:24:55;;;;;;;10.1;6.2;;;;;;;17.6;53.4;99010;;;;
2023/06/05 21:34:57;;;;;;;10.1;6.2;;;;;;;17.5;53.7;99010;;;;
2023/06/05 21:44:55;;;;;;;10.1;6.2;;;;;;;17.4;53.2;99010;;;;
2023/06/05 21:55:55;;;;;;;9.8;4.6;;;;;;;17.4;53;99010;;;;
2023/06/05 22:05:57;;;;;;;9.8;4.6;;;;;;;17.3;52.7;99010;;;;
2023/06/05 22:16:56;;;;;;;9.8;4.6;;;;;;;17.3;53.1;99010;;;;
2023/06/05 22:26:56;;;;;;;9.6;3.8;;;;;;;17.1;53.3;99000;;;;
2023/06/05 22:37:01;;;;;;;9.6;3.8;;;;;;;17;54.2;99000;;;;
2023/06/05 22:47:56;;;;;;;9.6;3.8;;;;;;;16.9;54.3;99000;;;;
2023/06/05 22:58:55;;;;;;;7.2;3.4;;;;;;;16.8;54.9;98980;;;;
2023/06/05 23:08:56;;;;;;;7.2;3.4;;;;;;;16.7;55.6;98970;;;;
2023/06/05 23:19:55;;;;;;;7.2;3.4;;;;;;;16.5;55.9;98970;;;;
2023/06/05 23:29:55;;;;;;;5.8;3.1;;;;;;;16.4;56.4;98960;;;;
2023/06/05 23:39:55;;;;;;;5.8;3.1;;;;;;;16.3;56.6;98950;;;;
2023/06/05 23:49:55;;;;;;;5.8;3.1;;;;;;;16.2;57.6;98950;;;;
